Rockwall, Texas
Current Conditions -  °F | °C
As of 1:55 AM on Friday 24 Oct 2014 (Local Time) from KF46 Reporting Station
Clear Clear  
Wind Chill: 61°   Ceiling: Unl
Heat Index: 61°   Visibility: 10mi
Dew Point: 55°   Wind: 6mph
Humidity: 82%   Direction: 150°SSE
Pressure: 30.11"   Gusts: NA
Location:  32.93°N, 96.46°W
Report Text: KF46 240655Z AUTO 15005KT 10SM CLR 16/13 A3011 RMK AO2 T01600130
Loading
Personal Weather Stations






























Interactive Weather Map
Tropical Storm Tracking
New forecast layout! Learn more

10-Day Weather Forecast

Advertisements
Track Severe Weather on mobile